Time;durP1;ratioP1;P1;durP2;ratioP2;P2;SDS_P1;SDS_P2;PMS_P1;PMS_P2;Temp;Humidity;BMP_temperature;BMP_pressure;BME280_temperature;BME280_humidity;BME280_pressure;Samples;Min_cycle;Max_cycle;Signal;HPM_P1;HPM_P2
2022/12/26 00:01:08;;;;;;;10.93;5.50;;;;;;;9.59;100.00;100452.06;4968368;29;20492;-78
2022/12/26 00:03:37;;;;;;;7.80;5.70;;;;;;;9.52;100.00;100462.03;4962211;29;20471;-79
2022/12/26 00:06:14;;;;;;;8.47;4.67;;;;;;;9.58;100.00;100453.91;4966014;29;20414;-78
2022/12/26 00:08:44;;;;;;;9.17;6.00;;;;;;;9.76;100.00;100464.13;4966087;28;20434;-79
2022/12/26 00:11:14;;;;;;;7.27;4.90;;;;;;;9.70;100.00;100464.13;4962206;29;20434;-80
2022/12/26 00:13:44;;;;;;;8.87;4.90;;;;;;;9.63;100.00;100455.19;4962248;29;20922;-79
2022/12/26 00:16:16;;;;;;;6.13;4.83;;;;;;;9.48;100.00;100452.69;4955283;29;20444;-80
2022/12/26 00:18:46;;;;;;;7.90;5.43;;;;;;;9.60;100.00;100451.84;4966982;28;20452;-79
2022/12/26 00:21:18;;;;;;;13.13;5.80;;;;;;;9.57;100.00;100452.28;4962256;29;20390;-79
2022/12/26 00:23:47;;;;;;;8.10;5.30;;;;;;;9.56;100.00;100438.97;4961284;28;20890;-79
2022/12/26 00:26:19;;;;;;;10.53;5.70;;;;;;;9.65;100.00;100424.22;4963206;28;20442;-79
2022/12/26 00:28:49;;;;;;;7.47;5.07;;;;;;;9.60;100.00;100424.84;4965506;28;20482;-79
2022/12/26 00:31:20;;;;;;;9.43;4.83;;;;;;;9.52;100.00;100416.94;4967837;28;20433;-80
2022/12/26 00:33:49;;;;;;;7.90;5.27;;;;;;;9.51;100.00;100423.38;4961434;29;20462;-80
2022/12/26 00:36:22;;;;;;;7.03;4.30;;;;;;;9.58;100.00;100429.59;4960321;29;20462;-79
2022/12/26 00:38:52;;;;;;;11.33;5.40;;;;;;;9.61;100.00;100433.78;4959237;28;20467;-79
2022/12/26 00:41:21;;;;;;;6.17;4.77;;;;;;;9.62;100.00;100432.75;4943120;29;20490;-79
2022/12/26 00:43:51;;;;;;;10.03;5.63;;;;;;;9.65;100.00;100431.50;4945999;29;20451;-80
2022/12/26 00:46:20;;;;;;;5.30;4.07;;;;;;;9.66;100.00;100416.94;4963220;29;20420;-78
2022/12/26 00:48:49;;;;;;;9.20;4.93;;;;;;;9.73;100.00;100413.19;4945649;29;20476;-78
2022/12/26 00:51:20;;;;;;;5.57;3.97;;;;;;;9.71;100.00;100415.28;4966465;29;20467;-78
2022/12/26 00:53:50;;;;;;;7.03;5.43;;;;;;;9.79;100.00;100401.56;4969265;29;20440;-79
2022/12/26 00:56:19;;;;;;;6.73;4.07;;;;;;;9.70;100.00;100394.72;4969611;28;20414;-78
2022/12/26 00:58:48;;;;;;;6.10;4.20;;;;;;;9.76;100.00;100412.78;4952072;29;20459;-79
2022/12/26 01:01:20;;;;;;;5.70;4.37;;;;;;;9.79;100.00;100406.97;4963893;29;20402;-79
2022/12/26 01:03:50;;;;;;;5.20;4.53;;;;;;;9.81;100.00;100385.97;4961616;29;20422;-78
2022/12/26 01:06:21;;;;;;;10.33;5.13;;;;;;;9.83;100.00;100383.88;4946392;29;20432;-79
2022/12/26 01:08:51;;;;;;;4.60;4.20;;;;;;;9.86;100.00;100383.47;4945037;29;20483;-80
2022/12/26 01:11:38;;;;;;;5.37;4.27;;;;;;;9.94;100.00;100375.16;4963083;29;20480;-79
2022/12/26 01:14:11;;;;;;;5.73;4.83;;;;;;;9.80;100.00;100378.06;4962229;29;20490;-79
2022/12/26 01:16:41;;;;;;;6.47;4.77;;;;;;;9.87;100.00;100384.31;4943152;29;20407;-79
2022/12/26 01:19:12;;;;;;;6.40;5.33;;;;;;;9.91;100.00;100386.38;4965019;28;20484;-79
2022/12/26 01:21:43;;;;;;;9.77;4.53;;;;;;;9.99;100.00;100383.47;4958623;28;20434;-79
2022/12/26 01:24:12;;;;;;;8.30;4.13;;;;;;;9.94;100.00;100366.19;4957077;29;20394;-79
2022/12/26 01:26:42;;;;;;;7.13;3.93;;;;;;;9.87;100.00;100387.03;4957821;29;20418;-80
2022/12/26 01:29:11;;;;;;;6.03;4.43;;;;;;;10.06;100.00;100390.72;4955313;28;20457;-79
2022/12/26 01:31:40;;;;;;;5.40;3.90;;;;;;;10.11;100.00;100380.13;4937787;29;20471;-79
2022/12/26 01:34:10;;;;;;;10.63;4.90;;;;;;;10.09;100.00;100391.13;4939493;29;20425;-79
2022/12/26 01:36:39;;;;;;;12.20;5.00;;;;;;;10.09;100.00;100395.69;4959953;29;20431;-79
2022/12/26 01:39:10;;;;;;;7.30;4.43;;;;;;;10.09;100.00;100384.88;4942264;29;20464;-79
2022/12/26 01:41:39;;;;;;;4.73;4.13;;;;;;;10.01;100.00;100375.97;4961851;28;20410;-78
2022/12/26 01:44:47;;;;;;;6.10;4.20;;;;;;;9.94;100.00;100372.44;4969494;29;20426;-77
2022/12/26 01:47:17;;;;;;;5.10;4.53;;;;;;;10.00;100.00;100371.59;4972974;28;20414;-79
2022/12/26 01:49:50;;;;;;;9.13;3.90;;;;;;;10.17;100.00;100366.59;4958921;29;20547;-78
2022/12/26 01:52:26;;;;;;;10.83;4.17;;;;;;;10.04;100.00;100364.72;4977814;29;20841;-81
2022/12/26 01:54:57;;;;;;;5.67;3.87;;;;;;;10.08;100.00;100367.00;4977977;29;20405;-79
2022/12/26 01:57:30;;;;;;;15.77;4.93;;;;;;;9.97;100.00;100369.31;4978099;29;20402;-78
2022/12/26 02:00:01;;;;;;;7.20;4.00;;;;;;;9.86;100.00;100353.75;4979077;28;20414;-80
2022/12/26 02:05:34;;;;;;;7.23;4.00;;;;;;;9.94;100.00;100368.91;4957428;29;20422;-78
2022/12/26 02:08:08;;;;;;;8.30;5.20;;;;;;;9.75;100.00;100362.50;4949141;28;20438;-80
2022/12/26 02:10:46;;;;;;;6.60;3.80;;;;;;;9.63;100.00;100368.75;4945903;29;20787;-80
2022/12/26 02:13:18;;;;;;;6.00;4.53;;;;;;;9.60;100.00;100378.09;4947501;29;20457;-79
2022/12/26 02:15:47;;;;;;;6.07;5.00;;;;;;;9.68;100.00;100375.19;4964278;29;20930;-80
2022/12/26 02:18:17;;;;;;;8.27;3.97;;;;;;;9.76;100.00;100369.56;4964562;29;20471;-79
2022/12/26 02:20:55;;;;;;;6.00;4.23;;;;;;;9.86;100.00;100378.06;4946603;29;20469;-79
2022/12/26 02:23:47;;;;;;;7.40;4.73;;;;;;;9.93;100.00;100359.97;4964403;29;20425;-80
2022/12/26 02:27:02;;;;;;;7.07;5.27;;;;;;;10.03;100.00;100348.72;4964605;29;21002;-79
2022/12/26 02:30:05;;;;;;;4.57;3.70;;;;;;;10.02;100.00;100364.09;4936876;29;20554;-79
2022/12/26 02:32:56;;;;;;;9.23;4.40;;;;;;;10.14;100.00;100363.47;4948741;29;20512;-79
2022/12/26 02:35:34;;;;;;;11.17;5.00;;;;;;;10.14;100.00;100361.59;4961631;29;20874;-80
2022/12/26 02:38:12;;;;;;;6.37;4.70;;;;;;;10.21;100.00;100353.50;4964168;28;20418;-80
2022/12/26 02:40:52;;;;;;;5.53;4.23;;;;;;;10.17;100.00;100344.97;4963126;29;20414;-79
2022/12/26 02:43:30;;;;;;;5.27;4.70;;;;;;;10.27;100.00;100355.31;4965101;29;20427;-80
2022/12/26 02:49:07;;;;;;;8.80;4.57;;;;;;;10.21;100.00;100339.97;4953695;29;20449;-78
2022/12/26 03:14:53;;;;;;;6.93;3.97;;;;;;;10.28;100.00;100370.53;4962664;29;20448;-80
2022/12/26 03:17:34;;;;;;;11.43;4.00;;;;;;;10.31;100.00;100379.03;4979924;28;20419;-79
2022/12/26 03:20:11;;;;;;;10.30;4.57;;;;;;;10.32;100.00;100364.47;4976122;28;20521;-78
2022/12/26 03:22:46;;;;;;;5.50;3.87;;;;;;;10.24;100.00;100356.59;4968456;29;20455;-78
2022/12/26 03:28:09;;;;;;;6.73;4.27;;;;;;;10.21;100.00;100358.91;4951669;29;20491;-78
2022/12/26 03:30:50;;;;;;;7.17;4.67;;;;;;;10.34;100.00;100364.25;4964663;29;20482;-78
2022/12/26 03:36:15;;;;;;;6.17;4.60;;;;;;;10.31;100.00;100364.72;4968139;29;20775;-78
2022/12/26 03:38:57;;;;;;;8.40;4.40;;;;;;;10.34;100.00;100366.97;4953658;29;21058;-77
2022/12/26 04:19:43;;;;;;;9.10;4.50;;;;;;;10.70;100.00;100378.03;4965486;28;20464;-79
2022/12/26 04:45:25;;;;;;;6.23;3.60;;;;;;;10.92;100.00;100396.69;4948191;29;20401;-80
2022/12/26 04:50:51;;;;;;;4.23;3.53;;;;;;;10.88;100.00;100390.88;4936727;29;20459;-78
2022/12/26 04:53:20;;;;;;;5.43;3.77;;;;;;;10.98;100.00;100401.25;4973184;29;20530;-78
2022/12/26 04:55:49;;;;;;;7.77;3.27;;;;;;;10.95;100.00;100394.38;4967286;29;20443;-78
2022/12/26 04:58:18;;;;;;;3.40;2.97;;;;;;;10.85;100.00;100397.53;4944843;29;20415;-78
2022/12/26 05:00:47;;;;;;;3.93;3.10;;;;;;;10.90;100.00;100394.19;4950434;29;20398;-79
2022/12/26 05:11:39;;;;;;;5.63;3.73;;;;;;;10.78;100.00;100390.50;4973213;29;20434;-77
2022/12/26 05:14:08;;;;;;;4.20;3.60;;;;;;;10.72;100.00;100408.44;4972105;29;20505;-78
2022/12/26 05:30:51;;;;;;;4.23;3.33;;;;;;;10.67;100.00;100426.34;4954879;29;20523;-77
2022/12/26 05:36:09;;;;;;;6.47;3.97;;;;;;;10.81;100.00;100436.91;4953245;29;20415;-77
2022/12/26 05:38:38;;;;;;;3.03;2.60;;;;;;;10.73;100.00;100422.81;4971039;28;20437;-77
2022/12/26 05:41:07;;;;;;;4.87;3.50;;;;;;;10.85;100.00;100424.63;4976137;29;20402;-77
2022/12/26 05:43:36;;;;;;;4.87;3.30;;;;;;;10.80;100.00;100435.25;4977136;28;20421;-78
2022/12/26 05:46:05;;;;;;;5.00;2.53;;;;;;;10.80;100.00;100429.84;4960582;28;20446;-78
2022/12/26 05:48:34;;;;;;;4.83;3.93;;;;;;;10.77;100.00;100430.28;4976672;28;20438;-77
2022/12/26 05:51:04;;;;;;;3.30;3.00;;;;;;;10.80;100.00;100429.00;4972377;28;20887;-77
2022/12/26 05:53:35;;;;;;;4.10;3.40;;;;;;;10.83;100.00;100434.00;4978420;28;20426;-76
2022/12/26 05:56:05;;;;;;;3.57;2.70;;;;;;;10.88;100.00;100437.72;4961151;29;20438;-78
2022/12/26 05:58:34;;;;;;;4.53;2.93;;;;;;;10.82;100.00;100440.47;4972907;28;20523;-77
2022/12/26 06:01:09;;;;;;;6.53;3.60;;;;;;;10.84;100.00;100444.59;4958463;29;20447;-77
2022/12/26 06:03:40;;;;;;;5.27;2.90;;;;;;;10.77;100.00;100441.09;4953504;29;20447;-77
2022/12/26 06:06:09;;;;;;;6.13;3.53;;;;;;;10.79;100.00;100439.03;4969344;29;20400;-77
2022/12/26 06:08:40;;;;;;;4.13;3.07;;;;;;;10.81;100.00;100436.09;4971461;29;20436;-77
2022/12/26 06:11:11;;;;;;;3.63;3.23;;;;;;;10.77;100.00;100443.81;4961775;29;20410;-77
2022/12/26 06:13:41;;;;;;;6.43;3.70;;;;;;;10.75;100.00;100443.19;4976123;28;20768;-76
2022/12/26 06:16:13;;;;;;;3.73;2.47;;;;;;;10.82;100.00;100454.00;4962162;29;20533;-78
2022/12/26 06:18:42;;;;;;;3.63;3.33;;;;;;;10.79;100.00;100459.84;4942039;29;20480;-77
2022/12/26 06:21:13;;;;;;;4.73;3.70;;;;;;;10.81;100.00;100455.03;4930758;29;20434;-77
2022/12/26 06:23:44;;;;;;;4.60;3.40;;;;;;;10.78;100.00;100448.19;4965743;28;20406;-78
2022/12/26 06:26:14;;;;;;;5.23;3.27;;;;;;;10.78;100.00;100439.22;4954234;29;20446;-77
2022/12/26 06:28:43;;;;;;;3.10;2.80;;;;;;;10.83;100.00;100437.56;4972138;28;20459;-78
2022/12/26 06:31:16;;;;;;;4.40;2.33;;;;;;;10.86;100.00;100430.84;4952967;29;20439;-78
2022/12/26 06:33:46;;;;;;;3.93;2.90;;;;;;;10.81;100.00;100439.63;4968634;29;20441;-78
2022/12/26 06:36:19;;;;;;;10.50;3.17;;;;;;;10.83;100.00;100440.25;4965999;28;20383;-77
2022/12/26 06:38:50;;;;;;;3.70;3.00;;;;;;;10.83;100.00;100444.84;4965969;28;20455;-78
2022/12/26 06:41:22;;;;;;;3.73;3.03;;;;;;;10.77;100.00;100454.63;4964948;28;20453;-77
2022/12/26 06:43:51;;;;;;;4.80;2.67;;;;;;;10.84;100.00;100466.25;4951889;29;20471;-78
2022/12/26 06:46:23;;;;;;;3.10;2.33;;;;;;;10.83;100.00;100470.03;4966930;29;20417;-78
2022/12/26 06:48:52;;;;;;;4.37;3.03;;;;;;;10.81;100.00;100482.94;4945630;29;20442;-77
2022/12/26 06:51:24;;;;;;;3.60;2.97;;;;;;;10.86;100.00;100485.84;4959713;29;20472;-77
2022/12/26 06:53:55;;;;;;;3.97;2.93;;;;;;;10.84;100.00;100490.63;4973215;29;20471;-77
2022/12/26 06:56:26;;;;;;;5.27;3.27;;;;;;;10.87;100.00;100494.78;4971975;29;20442;-78
2022/12/26 06:58:56;;;;;;;3.47;2.80;;;;;;;10.80;100.00;100502.09;4972970;28;20463;-78
2022/12/26 07:01:26;;;;;;;4.53;3.10;;;;;;;10.77;100.00;100510.63;4966500;29;20410;-78
2022/12/26 07:03:56;;;;;;;3.37;2.67;;;;;;;10.81;100.00;100501.88;4946489;29;20440;-78
2022/12/26 07:06:27;;;;;;;3.90;3.40;;;;;;;10.90;100.00;100506.00;4964913;29;20481;-77
2022/12/26 07:08:59;;;;;;;4.43;2.60;;;;;;;10.97;100.00;100497.03;4968349;28;20527;-77
2022/12/26 07:11:31;;;;;;;3.30;2.63;;;;;;;10.85;100.00;100504.97;4974542;28;20489;-77
2022/12/26 07:14:00;;;;;;;4.00;2.60;;;;;;;10.84;100.00;100504.16;4963595;28;20986;-78
2022/12/26 07:16:30;;;;;;;5.60;3.60;;;;;;;10.74;100.00;100500.25;4955521;29;20435;-78
2022/12/26 07:19:00;;;;;;;3.13;2.73;;;;;;;10.82;100.00;100500.84;4946501;29;20459;-80
2022/12/26 07:21:29;;;;;;;4.20;3.63;;;;;;;10.89;100.00;100501.63;4966215;29;20407;-78
2022/12/26 07:24:15;;;;;;;4.50;3.50;;;;;;;10.87;100.00;100509.16;4950108;29;20435;-78
2022/12/26 07:26:45;;;;;;;4.00;3.63;;;;;;;10.82;100.00;100503.56;4966296;29;20530;-78
2022/12/26 07:29:15;;;;;;;4.60;3.23;;;;;;;10.86;100.00;100507.50;4948391;29;20471;-78
2022/12/26 07:31:44;;;;;;;5.27;3.13;;;;;;;10.89;100.00;100512.47;4949465;29;20429;-78
2022/12/26 07:34:14;;;;;;;4.97;3.13;;;;;;;10.79;100.00;100517.53;4959792;29;20523;-77
2022/12/26 07:36:43;;;;;;;3.90;3.50;;;;;;;10.84;100.00;100506.06;4967899;28;20509;-77
2022/12/26 07:39:15;;;;;;;4.80;3.33;;;;;;;11.00;99.70;100507.44;4959984;28;20460;-76
2022/12/26 07:41:59;;;;;;;3.80;2.77;;;;;;;10.99;99.10;100511.22;4968942;28;20444;-78
2022/12/26 07:44:30;;;;;;;6.67;2.80;;;;;;;10.79;100.00;100495.88;4957122;29;20521;-78
2022/12/26 07:47:00;;;;;;;3.00;2.70;;;;;;;10.86;100.00;100495.81;4965839;29;20420;-78
2022/12/26 07:49:29;;;;;;;5.73;3.77;;;;;;;10.83;100.00;100515.22;4965115;29;20836;-77
2022/12/26 07:51:58;;;;;;;4.30;2.17;;;;;;;10.89;99.93;100515.16;4944739;29;20425;-78
2022/12/26 07:54:28;;;;;;;4.67;4.27;;;;;;;10.96;99.38;100522.44;4946787;29;20851;-76
2022/12/26 07:56:58;;;;;;;4.40;3.20;;;;;;;10.89;99.85;100528.72;4965253;28;20414;-77
2022/12/26 07:59:47;;;;;;;3.07;2.40;;;;;;;10.91;100.00;100531.22;4965142;28;20523;-80
2022/12/26 08:02:21;;;;;;;5.10;3.67;;;;;;;10.94;99.85;100540.78;4969434;29;20412;-78
2022/12/26 08:04:50;;;;;;;4.93;3.27;;;;;;;10.98;99.80;100542.88;4951669;29;20403;-78
2022/12/26 08:07:19;;;;;;;4.40;3.37;;;;;;;10.96;99.62;100534.09;4969792;29;20417;-77
2022/12/26 08:09:49;;;;;;;3.60;3.17;;;;;;;10.98;99.40;100528.50;4969683;28;20847;-78
2022/12/26 08:12:20;;;;;;;8.63;4.20;;;;;;;11.03;99.26;100534.09;4950488;29;20470;-77
2022/12/26 08:14:49;;;;;;;3.77;2.90;;;;;;;10.97;99.56;100521.41;4970438;28;20460;-77
2022/12/26 08:17:18;;;;;;;6.33;4.27;;;;;;;11.04;99.76;100524.91;4952209;29;20441;-78
2022/12/26 08:19:47;;;;;;;6.73;4.07;;;;;;;10.99;99.69;100522.03;4964381;29;20452;-77
2022/12/26 08:22:16;;;;;;;4.73;3.57;;;;;;;10.98;100.00;100528.50;4959416;29;20446;-77
2022/12/26 08:24:48;;;;;;;3.77;3.20;;;;;;;11.14;99.55;100536.13;4959714;29;20434;-78
2022/12/26 08:27:17;;;;;;;3.00;2.77;;;;;;;11.07;99.20;100529.91;4942495;29;20456;-77
2022/12/26 08:29:48;;;;;;;6.50;3.30;;;;;;;11.02;99.46;100537.84;4958055;28;20522;-77
2022/12/26 08:32:17;;;;;;;7.93;3.60;;;;;;;10.93;100.00;100539.97;4960173;29;20410;-78
2022/12/26 08:34:46;;;;;;;5.90;5.30;;;;;;;11.01;100.00;100541.59;4960137;29;20467;-77
2022/12/26 08:37:15;;;;;;;3.60;3.27;;;;;;;11.08;100.00;100543.25;4961151;28;20463;-78
2022/12/26 08:39:44;;;;;;;3.90;2.93;;;;;;;11.15;99.16;100537.78;4945662;29;20453;-78
2022/12/26 08:42:15;;;;;;;3.57;3.07;;;;;;;11.14;98.54;100530.69;4948180;29;20423;-78
2022/12/26 08:44:44;;;;;;;6.37;3.20;;;;;;;11.16;98.59;100537.59;4962366;29;20446;-78
2022/12/26 08:47:13;;;;;;;4.10;2.47;;;;;;;11.16;98.82;100544.88;4964383;29;20406;-78
2022/12/26 08:49:42;;;;;;;4.50;3.20;;;;;;;11.15;98.61;100548.63;4962894;29;20533;-78
2022/12/26 08:52:11;;;;;;;4.73;2.93;;;;;;;11.18;98.33;100545.50;4964757;28;20448;-77
2022/12/26 08:54:40;;;;;;;2.97;2.60;;;;;;;11.24;97.85;100536.50;4964673;29;20434;-78
2022/12/26 08:57:09;;;;;;;2.43;2.00;;;;;;;11.19;97.99;100539.00;4970421;28;20406;-78
2022/12/26 08:59:40;;;;;;;3.60;2.67;;;;;;;11.14;98.37;100538.81;4969882;28;20453;-79
2022/12/26 09:02:11;;;;;;;2.50;1.83;;;;;;;11.06;98.48;100534.50;4950725;29;20967;-78
2022/12/26 09:04:40;;;;;;;3.60;2.13;;;;;;;10.97;99.48;100538.47;4946514;29;20438;-78
2022/12/26 09:07:10;;;;;;;3.37;1.90;;;;;;;11.02;98.92;100549.50;4973511;29;20398;-78
2022/12/26 09:09:39;;;;;;;3.40;2.43;;;;;;;11.15;98.68;100559.44;4972444;28;20487;-78
2022/12/26 09:12:08;;;;;;;3.77;2.10;;;;;;;11.05;98.84;100567.19;4954664;29;20673;-77
2022/12/26 09:14:37;;;;;;;4.17;2.43;;;;;;;11.10;98.92;100579.06;4970753;29;20478;-77
2022/12/26 09:17:07;;;;;;;4.70;1.97;;;;;;;11.18;98.32;100586.94;4971749;29;20398;-77
2022/12/26 09:19:36;;;;;;;3.20;2.03;;;;;;;11.13;98.76;100588.63;5066042;23;20494;-79
2022/12/26 09:24:51;;;;;;;3.70;1.97;;;;;;;11.15;98.60;100586.53;4973631;29;20428;-79
2022/12/26 09:27:21;;;;;;;2.57;2.37;;;;;;;11.30;97.62;100598.78;4956751;29;20439;-79
2022/12/26 09:29:50;;;;;;;3.17;2.13;;;;;;;11.29;97.83;100580.84;4974127;28;20448;-79
2022/12/26 09:32:20;;;;;;;2.70;2.50;;;;;;;11.34;97.31;100591.03;4973639;29;20428;-80
2022/12/26 09:34:49;;;;;;;3.83;2.73;;;;;;;11.29;97.86;100590.84;4956757;29;20474;-80
2022/12/26 09:37:18;;;;;;;2.67;2.20;;;;;;;11.37;96.95;100593.34;4967886;29;20423;-79
2022/12/26 09:39:47;;;;;;;4.90;2.47;;;;;;;11.31;97.61;100586.06;4967103;28;20876;-80
2022/12/26 09:42:27;;;;;;;3.27;2.40;;;;;;;11.32;97.47;100577.75;4966588;29;20475;-80
2022/12/26 09:45:04;;;;;;;2.73;2.40;;;;;;;11.51;96.66;100581.41;4966524;29;20386;-79
2022/12/26 09:47:37;;;;;;;4.77;2.50;;;;;;;11.39;96.82;100572.28;4949056;29;20525;-80
2022/12/26 09:50:12;;;;;;;2.73;2.33;;;;;;;11.51;96.88;100575.97;4948935;29;20450;-82
2022/12/26 09:52:49;;;;;;;4.10;3.47;;;;;;;11.58;95.84;100579.47;4966911;29;20394;-80
2022/12/26 09:55:36;;;;;;;5.60;2.57;;;;;;;11.62;95.08;100577.16;4967461;29;20489;-79
2022/12/26 09:58:13;;;;;;;3.40;3.10;;;;;;;11.59;94.63;100577.59;4950263;29;20452;-80
2022/12/26 10:00:48;;;;;;;4.37;3.30;;;;;;;11.60;94.84;100580.09;4973067;28;20551;-81
2022/12/26 10:03:19;;;;;;;3.03;2.70;;;;;;;11.58;95.17;100587.59;4958819;29;20510;-78
2022/12/26 10:06:09;;;;;;;5.23;2.83;;;;;;;11.48;94.40;100589.94;4977957;29;20416;-80
2022/12/26 10:08:53;;;;;;;7.60;2.70;;;;;;;11.50;94.32;100589.75;4973816;28;20395;-80
2022/12/26 10:11:42;;;;;;;4.70;3.00;;;;;;;11.49;93.84;100591.63;4972033;29;20394;-81
2022/12/26 10:14:20;;;;;;;5.07;3.20;;;;;;;11.61;93.61;100592.63;4976887;29;20394;-80
2022/12/26 10:16:56;;;;;;;3.50;2.70;;;;;;;11.60;92.92;100600.94;4973163;29;20463;-80
2022/12/26 10:19:56;;;;;;;2.90;2.20;;;;;;;11.71;91.82;100605.69;4973170;28;20462;-78
2022/12/26 10:22:56;;;;;;;3.23;1.97;;;;;;;11.64;90.98;100605.72;4954988;29;20429;-80
2022/12/26 10:25:32;;;;;;;4.43;3.00;;;;;;;11.67;91.01;100613.41;4952768;29;20418;-79
2022/12/26 10:28:03;;;;;;;5.63;3.03;;;;;;;11.54;91.78;100612.66;4970870;29;20441;-79
2022/12/26 10:30:37;;;;;;;3.20;2.70;;;;;;;11.60;91.12;100622.63;4971185;28;20433;-79
2022/12/26 10:33:13;;;;;;;3.20;2.20;;;;;;;11.52;90.92;100598.50;4952909;29;20797;-79
2022/12/26 10:35:45;;;;;;;2.83;1.90;;;;;;;11.49;91.19;100598.91;4951937;29;20449;-80
2022/12/26 10:38:25;;;;;;;2.73;2.17;;;;;;;11.39;91.72;100603.94;4951806;29;20427;-81
2022/12/26 10:41:00;;;;;;;5.33;2.43;;;;;;;11.37;91.35;100601.47;4951733;29;20401;-78
2022/12/26 10:43:32;;;;;;;4.10;2.50;;;;;;;11.38;91.17;100599.56;4951034;29;20403;-78
2022/12/26 10:46:23;;;;;;;6.03;2.63;;;;;;;11.41;91.46;100591.88;4951200;29;20421;-80
2022/12/26 10:48:52;;;;;;;3.40;2.50;;;;;;;11.35;90.79;100581.88;4951904;29;20532;-80
2022/12/26 10:51:24;;;;;;;4.20;3.77;;;;;;;11.26;91.17;100594.84;4958149;29;20410;-80
2022/12/26 10:53:56;;;;;;;2.87;2.07;;;;;;;11.24;91.66;100588.78;4969793;29;20400;-80
2022/12/26 10:56:27;;;;;;;3.00;2.17;;;;;;;11.26;91.27;100600.25;4969729;29;20478;-79
2022/12/26 10:59:04;;;;;;;2.73;2.47;;;;;;;11.13;91.97;100616.56;4953091;29;20464;-81
2022/12/26 11:01:36;;;;;;;2.30;1.80;;;;;;;11.10;91.20;100606.13;4970462;29;20834;-80
2022/12/26 11:04:15;;;;;;;2.87;2.47;;;;;;;11.12;91.33;100604.06;4970126;29;20435;-81
2022/12/26 11:06:53;;;;;;;3.90;2.23;;;;;;;11.12;91.20;100603.22;4970296;29;20451;-79
2022/12/26 11:09:38;;;;;;;3.07;2.20;;;;;;;11.14;90.90;100611.94;4971157;28;20411;-78
2022/12/26 11:12:18;;;;;;;5.93;2.90;;;;;;;11.06;90.91;100601.34;4978848;29;20467;-79
2022/12/26 11:14:57;;;;;;;2.13;1.93;;;;;;;11.03;91.40;100604.50;4960809;29;20438;-78
2022/12/26 11:17:31;;;;;;;2.37;2.07;;;;;;;11.01;91.27;100606.56;4973289;29;20463;-81
2022/12/26 11:20:22;;;;;;;2.30;1.73;;;;;;;11.00;90.73;100605.72;4952454;29;20471;-81
2022/12/26 11:22:53;;;;;;;5.07;2.30;;;;;;;10.92;91.48;100603.25;4970172;29;20422;-80
2022/12/26 11:25:26;;;;;;;5.60;2.00;;;;;;;10.95;91.16;100607.41;4970055;29;20422;-79
2022/12/26 11:27:57;;;;;;;2.43;2.20;;;;;;;10.89;91.37;100607.22;4970124;29;20399;-81
2022/12/26 11:30:30;;;;;;;3.70;2.50;;;;;;;10.86;91.39;100604.94;4970255;29;20523;-81
2022/12/26 11:33:11;;;;;;;2.80;2.40;;;;;;;10.85;91.80;100603.25;4971712;29;20421;-82
2022/12/26 11:36:03;;;;;;;3.77;2.80;;;;;;;10.80;91.57;100589.53;4951928;29;20435;-81
2022/12/26 11:38:47;;;;;;;2.43;2.23;;;;;;;10.76;91.54;100587.47;4968363;28;20387;-81
2022/12/26 11:41:33;;;;;;;3.63;2.10;;;;;;;10.79;91.58;100589.75;4969067;29;20386;-81
2022/12/26 11:44:17;;;;;;;3.40;2.53;;;;;;;10.88;91.41;100596.63;4968618;29;20420;-79
2022/12/26 11:46:52;;;;;;;2.43;1.90;;;;;;;10.90;91.22;100599.94;4966633;29;20894;-81
2022/12/26 11:49:32;;;;;;;2.77;2.50;;;;;;;11.08;91.04;100601.97;4969249;28;20457;-81
2022/12/26 11:52:23;;;;;;;4.13;2.40;;;;;;;11.20;90.16;100605.69;4969413;29;20390;-80
2022/12/26 11:54:54;;;;;;;3.07;2.23;;;;;;;11.32;89.75;100615.66;4952599;29;20452;-80
2022/12/26 11:57:30;;;;;;;3.50;2.77;;;;;;;11.40;88.86;100606.44;4950796;29;20483;-81
2022/12/26 12:00:18;;;;;;;4.70;2.23;;;;;;;11.49;88.81;100605.16;4968342;28;20422;-82
2022/12/26 12:02:47;;;;;;;4.07;2.63;;;;;;;11.37;88.90;100612.31;4951618;29;20432;-80
2022/12/26 12:05:35;;;;;;;2.87;2.57;;;;;;;11.33;89.50;100602.91;4950691;29;20418;-81
2022/12/26 12:08:28;;;;;;;2.90;2.30;;;;;;;11.22;90.19;100614.44;4968808;29;20402;-80
2022/12/26 12:11:20;;;;;;;3.47;2.20;;;;;;;11.22;90.65;100606.31;4966582;28;20426;-79
2022/12/26 12:14:18;;;;;;;3.37;2.20;;;;;;;11.21;90.60;100607.34;4958704;29;20407;-80
2022/12/26 12:16:57;;;;;;;3.27;2.37;;;;;;;11.07;91.65;100603.03;4960567;29;20543;-78
2022/12/26 12:19:38;;;;;;;3.10;2.80;;;;;;;10.99;91.94;100587.00;4976174;28;20770;-79
2022/12/26 12:22:32;;;;;;;3.87;3.00;;;;;;;10.96;92.81;100588.25;4977920;28;20382;-80
2022/12/26 12:25:40;;;;;;;3.03;2.30;;;;;;;10.95;93.43;100589.28;4953324;29;20514;-78
2022/12/26 12:28:27;;;;;;;3.33;2.77;;;;;;;10.80;94.55;100578.69;4974227;28;20375;-78
2022/12/26 12:31:06;;;;;;;3.60;2.43;;;;;;;10.79;94.49;100582.47;4974702;29;20371;-78
2022/12/26 12:33:46;;;;;;;5.37;3.60;;;;;;;10.68;95.33;100577.69;4972524;29;20394;-81
2022/12/26 12:36:21;;;;;;;5.03;2.97;;;;;;;10.73;95.27;100588.72;4970441;29;20444;-78
2022/12/26 12:39:09;;;;;;;4.60;3.23;;;;;;;10.68;95.51;100580.41;4971198;28;20490;-80
2022/12/26 12:42:00;;;;;;;5.60;3.60;;;;;;;10.70;95.32;100572.88;4968668;29;20393;-81
2022/12/26 12:44:45;;;;;;;4.73;3.50;;;;;;;10.78;94.94;100569.97;4975495;29;20378;-78
2022/12/26 12:47:31;;;;;;;4.47;3.33;;;;;;;10.74;94.93;100568.75;4975275;29;20414;-79
2022/12/26 12:50:10;;;;;;;5.23;3.60;;;;;;;10.78;94.71;100572.69;4974333;28;20521;-80
2022/12/26 12:52:48;;;;;;;4.00;2.97;;;;;;;10.95;94.26;100574.91;4960955;29;20399;-80
2022/12/26 12:55:40;;;;;;;7.53;3.20;;;;;;;11.03;93.60;100569.28;4968150;29;20390;-80
2022/12/26 12:58:22;;;;;;;4.80;3.17;;;;;;;10.99;93.31;100560.75;4967415;29;20441;-79
2022/12/26 13:00:56;;;;;;;4.97;3.43;;;;;;;11.11;92.65;100577.19;4968117;29;20423;-79
2022/12/26 13:03:32;;;;;;;5.27;3.17;;;;;;;10.97;93.17;100568.25;4966921;29;20847;-80
2022/12/26 13:06:08;;;;;;;4.03;2.87;;;;;;;11.19;92.45;100577.75;4966823;29;20411;-79
2022/12/26 13:08:40;;;;;;;5.47;2.43;;;;;;;11.07;92.26;100579.50;4967485;28;20395;-79
2022/12/26 13:11:13;;;;;;;3.33;3.03;;;;;;;11.08;92.35;100583.03;4971353;29;20447;-78
2022/12/26 13:13:48;;;;;;;3.87;3.33;;;;;;;10.96;92.41;100569.31;4955080;29;20403;-78
2022/12/26 13:16:27;;;;;;;3.93;2.70;;;;;;;10.83;93.41;100572.88;4970206;29;20401;-79
2022/12/26 13:19:00;;;;;;;3.77;2.53;;;;;;;10.97;92.69;100572.84;4969866;28;20509;-79
2022/12/26 13:21:33;;;;;;;3.70;2.33;;;;;;;10.76;93.57;100577.47;4969182;29;20390;-79
2022/12/26 13:24:24;;;;;;;3.43;2.40;;;;;;;10.60;94.11;100585.22;4950692;29;20399;-80
2022/12/26 13:26:59;;;;;;;4.20;3.00;;;;;;;10.51;94.79;100584.56;4951851;29;20424;-78
2022/12/26 13:29:36;;;;;;;4.33;3.20;;;;;;;10.61;94.94;100590.38;4947986;29;20965;-81
2022/12/26 13:32:20;;;;;;;4.90;3.07;;;;;;;10.66;93.79;100579.78;4950005;29;20417;-80
2022/12/26 13:34:51;;;;;;;3.77;2.17;;;;;;;10.71;93.79;100582.69;4969955;29;20394;-79
2022/12/26 13:37:54;;;;;;;3.53;2.50;;;;;;;10.69;93.47;100579.38;4970892;29;20455;-80
2022/12/26 13:40:27;;;;;;;4.43;3.40;;;;;;;10.64;93.39;100583.75;4972696;28;20448;-80
2022/12/26 13:45:56;;;;;;;4.00;3.53;;;;;;;10.45;94.42;100574.59;4959722;29;20455;-80
2022/12/26 13:49:06;;;;;;;3.20;2.83;;;;;;;10.45;94.26;100580.00;4959411;28;20518;-80
2022/12/26 13:51:56;;;;;;;6.10;3.27;;;;;;;10.46;94.22;100576.25;4974593;29;20470;-80
2022/12/26 13:54:27;;;;;;;5.03;3.20;;;;;;;10.50;94.01;100582.94;4980225;29;20387;-78
2022/12/26 13:57:29;;;;;;;5.10;2.67;;;;;;;10.58;93.16;100584.56;4964354;28;20463;-77
2022/12/26 14:00:17;;;;;;;4.87;3.17;;;;;;;10.54;93.36;100586.03;4974308;28;20497;-78
2022/12/26 14:03:27;;;;;;;4.83;3.20;;;;;;;10.60;93.27;100583.31;4981600;28;20398;-80
2022/12/26 14:06:13;;;;;;;6.57;3.87;;;;;;;10.73;92.24;100591.44;4964607;28;20419;-79
2022/12/26 14:08:58;;;;;;;4.80;3.70;;;;;;;10.69;92.03;100597.47;4975630;28;20461;-79